sensor_id;sensor_type;location;lat;lon;timestamp;P1;durP1;ratioP1;P2;durP2;ratioP2
9260;SDS011;4667;42.726;23.252;2023-09-30T00:00:00;11.20;;;6.70;;
9260;SDS011;4667;42.726;23.252;2023-09-30T00:02:27;9.50;;;6.70;;
9260;SDS011;4667;42.726;23.252;2023-09-30T00:04:56;9.77;;;6.20;;
9260;SDS011;4667;42.726;23.252;2023-09-30T00:07:23;9.43;;;6.23;;
9260;SDS011;4667;42.726;23.252;2023-09-30T00:09:50;11.37;;;6.47;;
9260;SDS011;4667;42.726;23.252;2023-09-30T00:12:17;8.27;;;6.77;;
9260;SDS011;4667;42.726;23.252;2023-09-30T00:14:43;10.77;;;6.20;;
9260;SDS011;4667;42.726;23.252;2023-09-30T00:17:10;11.20;;;6.83;;
9260;SDS011;4667;42.726;23.252;2023-09-30T00:19:37;13.33;;;6.77;;
9260;SDS011;4667;42.726;23.252;2023-09-30T00:22:07;10.07;;;6.57;;
9260;SDS011;4667;42.726;23.252;2023-09-30T00:24:34;10.97;;;6.30;;
9260;SDS011;4667;42.726;23.252;2023-09-30T00:27:01;11.97;;;6.30;;
9260;SDS011;4667;42.726;23.252;2023-09-30T00:29:27;10.90;;;7.00;;
9260;SDS011;4667;42.726;23.252;2023-09-30T00:31:54;12.17;;;6.90;;
9260;SDS011;4667;42.726;23.252;2023-09-30T00:34:21;9.63;;;6.33;;
9260;SDS011;4667;42.726;23.252;2023-09-30T00:36:47;11.47;;;7.13;;
9260;SDS011;4667;42.726;23.252;2023-09-30T00:39:15;12.97;;;7.10;;
9260;SDS011;4667;42.726;23.252;2023-09-30T00:41:42;9.50;;;6.77;;
9260;SDS011;4667;42.726;23.252;2023-09-30T00:44:09;12.53;;;6.27;;
9260;SDS011;4667;42.726;23.252;2023-09-30T00:46:36;10.30;;;6.90;;
9260;SDS011;4667;42.726;23.252;2023-09-30T00:49:06;11.37;;;6.47;;
9260;SDS011;4667;42.726;23.252;2023-09-30T00:51:35;11.27;;;6.80;;
9260;SDS011;4667;42.726;23.252;2023-09-30T00:54:02;14.97;;;7.07;;
9260;SDS011;4667;42.726;23.252;2023-09-30T00:56:32;10.70;;;7.23;;
9260;SDS011;4667;42.726;23.252;2023-09-30T00:58:59;13.43;;;6.73;;
9260;SDS011;4667;42.726;23.252;2023-09-30T01:01:27;10.23;;;7.40;;
9260;SDS011;4667;42.726;23.252;2023-09-30T01:03:54;17.70;;;7.80;;
9260;SDS011;4667;42.726;23.252;2023-09-30T01:06:21;9.60;;;7.07;;
9260;SDS011;4667;42.726;23.252;2023-09-30T01:08:48;13.83;;;7.93;;
9260;SDS011;4667;42.726;23.252;2023-09-30T01:11:15;13.10;;;7.03;;
9260;SDS011;4667;42.726;23.252;2023-09-30T01:13:44;10.33;;;6.87;;
9260;SDS011;4667;42.726;23.252;2023-09-30T01:16:12;12.07;;;7.13;;
9260;SDS011;4667;42.726;23.252;2023-09-30T01:18:39;15.93;;;7.50;;
9260;SDS011;4667;42.726;23.252;2023-09-30T01:21:08;12.03;;;7.30;;
9260;SDS011;4667;42.726;23.252;2023-09-30T01:23:37;14.50;;;7.90;;
9260;SDS011;4667;42.726;23.252;2023-09-30T01:26:05;10.33;;;6.87;;
9260;SDS011;4667;42.726;23.252;2023-09-30T01:28:35;13.50;;;6.93;;
9260;SDS011;4667;42.726;23.252;2023-09-30T01:31:02;12.13;;;7.70;;
9260;SDS011;4667;42.726;23.252;2023-09-30T01:33:29;14.17;;;8.17;;
9260;SDS011;4667;42.726;23.252;2023-09-30T01:35:56;10.70;;;7.60;;
9260;SDS011;4667;42.726;23.252;2023-09-30T01:38:23;13.17;;;7.63;;
9260;SDS011;4667;42.726;23.252;2023-09-30T01:40:51;14.43;;;6.77;;
9260;SDS011;4667;42.726;23.252;2023-09-30T01:43:19;9.60;;;7.33;;
9260;SDS011;4667;42.726;23.252;2023-09-30T01:45:46;14.63;;;7.70;;
9260;SDS011;4667;42.726;23.252;2023-09-30T01:48:12;13.00;;;7.27;;
9260;SDS011;4667;42.726;23.252;2023-09-30T01:50:39;10.57;;;6.83;;
9260;SDS011;4667;42.726;23.252;2023-09-30T01:53:06;13.90;;;7.77;;
9260;SDS011;4667;42.726;23.252;2023-09-30T01:55:34;12.97;;;8.10;;
9260;SDS011;4667;42.726;23.252;2023-09-30T01:58:02;13.60;;;6.73;;
9260;SDS011;4667;42.726;23.252;2023-09-30T02:00:30;13.77;;;7.53;;
9260;SDS011;4667;42.726;23.252;2023-09-30T02:02:56;13.87;;;7.00;;
9260;SDS011;4667;42.726;23.252;2023-09-30T02:05:24;10.80;;;6.93;;
9260;SDS011;4667;42.726;23.252;2023-09-30T02:07:50;15.37;;;7.40;;
9260;SDS011;4667;42.726;23.252;2023-09-30T02:10:18;17.57;;;8.03;;
9260;SDS011;4667;42.726;23.252;2023-09-30T02:12:46;14.63;;;7.90;;
9260;SDS011;4667;42.726;23.252;2023-09-30T02:15:14;12.23;;;7.73;;
9260;SDS011;4667;42.726;23.252;2023-09-30T02:17:41;12.77;;;7.73;;
9260;SDS011;4667;42.726;23.252;2023-09-30T02:20:10;13.53;;;8.10;;
9260;SDS011;4667;42.726;23.252;2023-09-30T02:22:41;11.63;;;7.67;;
9260;SDS011;4667;42.726;23.252;2023-09-30T02:25:09;11.93;;;7.80;;
9260;SDS011;4667;42.726;23.252;2023-09-30T02:27:37;11.77;;;7.50;;
9260;SDS011;4667;42.726;23.252;2023-09-30T02:30:05;15.17;;;8.00;;
9260;SDS011;4667;42.726;23.252;2023-09-30T02:32:34;12.40;;;7.87;;
9260;SDS011;4667;42.726;23.252;2023-09-30T02:35:01;10.30;;;7.70;;
9260;SDS011;4667;42.726;23.252;2023-09-30T02:37:31;10.30;;;7.60;;
9260;SDS011;4667;42.726;23.252;2023-09-30T02:40:00;17.07;;;8.07;;
9260;SDS011;4667;42.726;23.252;2023-09-30T02:42:29;12.70;;;8.53;;
9260;SDS011;4667;42.726;23.252;2023-09-30T02:44:55;10.87;;;7.77;;
9260;SDS011;4667;42.726;23.252;2023-09-30T02:47:22;11.63;;;7.57;;
9260;SDS011;4667;42.726;23.252;2023-09-30T02:49:50;14.10;;;7.97;;
9260;SDS011;4667;42.726;23.252;2023-09-30T02:52:17;14.33;;;7.83;;
9260;SDS011;4667;42.726;23.252;2023-09-30T02:54:43;11.43;;;7.07;;
9260;SDS011;4667;42.726;23.252;2023-09-30T02:57:10;12.63;;;7.53;;
9260;SDS011;4667;42.726;23.252;2023-09-30T02:59:37;14.47;;;7.77;;
9260;SDS011;4667;42.726;23.252;2023-09-30T03:02:04;16.03;;;7.87;;
9260;SDS011;4667;42.726;23.252;2023-09-30T03:04:31;13.30;;;7.33;;
9260;SDS011;4667;42.726;23.252;2023-09-30T03:07:00;16.57;;;7.37;;
9260;SDS011;4667;42.726;23.252;2023-09-30T03:09:27;10.03;;;6.47;;
9260;SDS011;4667;42.726;23.252;2023-09-30T03:11:54;10.53;;;7.07;;
9260;SDS011;4667;42.726;23.252;2023-09-30T03:14:21;13.73;;;7.90;;
9260;SDS011;4667;42.726;23.252;2023-09-30T03:16:48;10.97;;;7.03;;
9260;SDS011;4667;42.726;23.252;2023-09-30T03:19:15;16.77;;;8.27;;
9260;SDS011;4667;42.726;23.252;2023-09-30T03:21:42;9.57;;;6.23;;
9260;SDS011;4667;42.726;23.252;2023-09-30T03:24:11;13.57;;;7.70;;
9260;SDS011;4667;42.726;23.252;2023-09-30T03:26:37;9.27;;;6.77;;
9260;SDS011;4667;42.726;23.252;2023-09-30T03:29:06;12.47;;;6.47;;
9260;SDS011;4667;42.726;23.252;2023-09-30T03:31:34;12.50;;;6.57;;
9260;SDS011;4667;42.726;23.252;2023-09-30T03:34:01;10.83;;;6.30;;
9260;SDS011;4667;42.726;23.252;2023-09-30T03:36:29;11.77;;;6.80;;
9260;SDS011;4667;42.726;23.252;2023-09-30T03:38:56;11.53;;;7.67;;
9260;SDS011;4667;42.726;23.252;2023-09-30T03:41:32;12.63;;;6.83;;
9260;SDS011;4667;42.726;23.252;2023-09-30T03:44:00;13.03;;;7.77;;
9260;SDS011;4667;42.726;23.252;2023-09-30T03:46:27;14.57;;;7.60;;
9260;SDS011;4667;42.726;23.252;2023-09-30T03:48:55;13.80;;;7.40;;
9260;SDS011;4667;42.726;23.252;2023-09-30T03:51:21;10.00;;;6.40;;
9260;SDS011;4667;42.726;23.252;2023-09-30T03:53:50;10.80;;;7.53;;
9260;SDS011;4667;42.726;23.252;2023-09-30T03:56:17;11.87;;;7.67;;
9260;SDS011;4667;42.726;23.252;2023-09-30T03:58:45;11.50;;;6.97;;
9260;SDS011;4667;42.726;23.252;2023-09-30T04:01:13;11.30;;;6.97;;
9260;SDS011;4667;42.726;23.252;2023-09-30T04:03:41;9.57;;;7.13;;
9260;SDS011;4667;42.726;23.252;2023-09-30T04:06:09;10.47;;;7.00;;
9260;SDS011;4667;42.726;23.252;2023-09-30T04:08:36;11.40;;;7.13;;
9260;SDS011;4667;42.726;23.252;2023-09-30T04:11:03;12.07;;;6.33;;
9260;SDS011;4667;42.726;23.252;2023-09-30T04:13:30;10.70;;;7.50;;
9260;SDS011;4667;42.726;23.252;2023-09-30T04:15:58;11.27;;;7.67;;
9260;SDS011;4667;42.726;23.252;2023-09-30T04:18:25;11.57;;;7.77;;
9260;SDS011;4667;42.726;23.252;2023-09-30T04:20:52;10.60;;;7.30;;
9260;SDS011;4667;42.726;23.252;2023-09-30T04:23:19;11.60;;;8.17;;
9260;SDS011;4667;42.726;23.252;2023-09-30T04:25:47;22.37;;;8.03;;
9260;SDS011;4667;42.726;23.252;2023-09-30T04:28:14;16.30;;;8.83;;
9260;SDS011;4667;42.726;23.252;2023-09-30T04:30:45;13.57;;;7.20;;
9260;SDS011;4667;42.726;23.252;2023-09-30T04:33:15;11.80;;;7.93;;
9260;SDS011;4667;42.726;23.252;2023-09-30T04:35:44;12.17;;;8.13;;
9260;SDS011;4667;42.726;23.252;2023-09-30T04:38:12;17.57;;;9.47;;
9260;SDS011;4667;42.726;23.252;2023-09-30T04:40:41;15.00;;;8.33;;
9260;SDS011;4667;42.726;23.252;2023-09-30T04:43:09;14.10;;;7.80;;
9260;SDS011;4667;42.726;23.252;2023-09-30T04:45:36;17.63;;;8.70;;
9260;SDS011;4667;42.726;23.252;2023-09-30T04:48:03;16.90;;;8.17;;
9260;SDS011;4667;42.726;23.252;2023-09-30T04:50:31;12.73;;;8.10;;
9260;SDS011;4667;42.726;23.252;2023-09-30T04:52:58;14.30;;;8.30;;
9260;SDS011;4667;42.726;23.252;2023-09-30T04:55:25;15.27;;;9.07;;
9260;SDS011;4667;42.726;23.252;2023-09-30T04:57:52;16.77;;;7.80;;
9260;SDS011;4667;42.726;23.252;2023-09-30T05:00:19;19.87;;;8.43;;
9260;SDS011;4667;42.726;23.252;2023-09-30T05:02:50;16.67;;;7.97;;
9260;SDS011;4667;42.726;23.252;2023-09-30T05:05:17;15.30;;;8.37;;
9260;SDS011;4667;42.726;23.252;2023-09-30T05:07:46;15.10;;;8.53;;
9260;SDS011;4667;42.726;23.252;2023-09-30T05:10:13;16.17;;;8.90;;
9260;SDS011;4667;42.726;23.252;2023-09-30T05:12:41;16.57;;;8.13;;
9260;SDS011;4667;42.726;23.252;2023-09-30T05:15:11;13.57;;;9.20;;
9260;SDS011;4667;42.726;23.252;2023-09-30T05:17:38;20.50;;;10.93;;
9260;SDS011;4667;42.726;23.252;2023-09-30T05:20:05;25.03;;;16.73;;
9260;SDS011;4667;42.726;23.252;2023-09-30T05:22:33;27.43;;;17.83;;
9260;SDS011;4667;42.726;23.252;2023-09-30T05:25:01;30.30;;;21.37;;
9260;SDS011;4667;42.726;23.252;2023-09-30T05:27:28;35.93;;;23.97;;
9260;SDS011;4667;42.726;23.252;2023-09-30T05:29:54;27.30;;;22.13;;
9260;SDS011;4667;42.726;23.252;2023-09-30T05:32:21;29.27;;;21.70;;
9260;SDS011;4667;42.726;23.252;2023-09-30T05:34:48;32.50;;;21.20;;
9260;SDS011;4667;42.726;23.252;2023-09-30T05:37:15;27.93;;;21.73;;
9260;SDS011;4667;42.726;23.252;2023-09-30T05:39:44;26.03;;;21.27;;
9260;SDS011;4667;42.726;23.252;2023-09-30T05:42:12;31.00;;;20.63;;
9260;SDS011;4667;42.726;23.252;2023-09-30T05:44:39;31.40;;;20.60;;
9260;SDS011;4667;42.726;23.252;2023-09-30T05:47:06;21.07;;;18.20;;
9260;SDS011;4667;42.726;23.252;2023-09-30T05:49:33;25.37;;;18.10;;
9260;SDS011;4667;42.726;23.252;2023-09-30T05:52:01;21.60;;;15.53;;
9260;SDS011;4667;42.726;23.252;2023-09-30T05:54:28;36.87;;;21.47;;
9260;SDS011;4667;42.726;23.252;2023-09-30T05:56:55;25.73;;;17.80;;
9260;SDS011;4667;42.726;23.252;2023-09-30T05:59:23;25.97;;;18.27;;
9260;SDS011;4667;42.726;23.252;2023-09-30T06:01:51;25.13;;;17.23;;
9260;SDS011;4667;42.726;23.252;2023-09-30T06:04:17;22.83;;;15.43;;
9260;SDS011;4667;42.726;23.252;2023-09-30T06:06:44;26.70;;;14.67;;
9260;SDS011;4667;42.726;23.252;2023-09-30T06:09:11;24.13;;;14.83;;
9260;SDS011;4667;42.726;23.252;2023-09-30T06:11:38;17.13;;;13.20;;
9260;SDS011;4667;42.726;23.252;2023-09-30T06:14:07;19.43;;;11.50;;
9260;SDS011;4667;42.726;23.252;2023-09-30T06:16:35;22.87;;;10.77;;
9260;SDS011;4667;42.726;23.252;2023-09-30T06:19:01;19.13;;;10.67;;
9260;SDS011;4667;42.726;23.252;2023-09-30T06:21:29;15.40;;;10.43;;
9260;SDS011;4667;42.726;23.252;2023-09-30T06:23:56;17.07;;;10.03;;
9260;SDS011;4667;42.726;23.252;2023-09-30T06:26:23;16.13;;;9.70;;
9260;SDS011;4667;42.726;23.252;2023-09-30T06:28:53;19.13;;;10.13;;
9260;SDS011;4667;42.726;23.252;2023-09-30T06:31:21;13.13;;;9.20;;
9260;SDS011;4667;42.726;23.252;2023-09-30T06:33:49;12.50;;;8.77;;
9260;SDS011;4667;42.726;23.252;2023-09-30T06:36:16;22.77;;;10.67;;
9260;SDS011;4667;42.726;23.252;2023-09-30T06:38:43;17.43;;;9.53;;
9260;SDS011;4667;42.726;23.252;2023-09-30T06:41:15;17.60;;;9.17;;
9260;SDS011;4667;42.726;23.252;2023-09-30T06:43:42;13.70;;;8.90;;
9260;SDS011;4667;42.726;23.252;2023-09-30T06:46:09;15.97;;;9.43;;
9260;SDS011;4667;42.726;23.252;2023-09-30T06:48:36;14.03;;;10.77;;
9260;SDS011;4667;42.726;23.252;2023-09-30T06:51:06;23.17;;;9.23;;
9260;SDS011;4667;42.726;23.252;2023-09-30T06:53:33;13.43;;;7.83;;
9260;SDS011;4667;42.726;23.252;2023-09-30T06:56:02;14.63;;;6.80;;
9260;SDS011;4667;42.726;23.252;2023-09-30T06:58:31;10.33;;;6.87;;
9260;SDS011;4667;42.726;23.252;2023-09-30T07:00:58;13.00;;;7.33;;
9260;SDS011;4667;42.726;23.252;2023-09-30T07:03:24;13.50;;;7.87;;
9260;SDS011;4667;42.726;23.252;2023-09-30T07:05:51;17.40;;;7.10;;
9260;SDS011;4667;42.726;23.252;2023-09-30T07:08:20;13.93;;;7.80;;
9260;SDS011;4667;42.726;23.252;2023-09-30T07:10:47;9.88;;;6.40;;
9260;SDS011;4667;42.726;23.252;2023-09-30T07:13:15;15.02;;;6.82;;
9260;SDS011;4667;42.726;23.252;2023-09-30T07:15:43;13.55;;;8.30;;
9260;SDS011;4667;42.726;23.252;2023-09-30T07:18:10;12.82;;;6.35;;
9260;SDS011;4667;42.726;23.252;2023-09-30T07:20:38;9.93;;;5.72;;
9260;SDS011;4667;42.726;23.252;2023-09-30T07:23:04;9.50;;;5.40;;
9260;SDS011;4667;42.726;23.252;2023-09-30T07:25:33;11.80;;;5.63;;
9260;SDS011;4667;42.726;23.252;2023-09-30T07:27:59;10.27;;;5.00;;
9260;SDS011;4667;42.726;23.252;2023-09-30T07:30:26;9.93;;;5.50;;
9260;SDS011;4667;42.726;23.252;2023-09-30T07:32:53;15.70;;;6.47;;
9260;SDS011;4667;42.726;23.252;2023-09-30T07:35:20;9.63;;;5.22;;
9260;SDS011;4667;42.726;23.252;2023-09-30T07:37:46;9.38;;;6.28;;
9260;SDS011;4667;42.726;23.252;2023-09-30T07:40:16;7.72;;;4.90;;
9260;SDS011;4667;42.726;23.252;2023-09-30T07:42:45;9.65;;;4.90;;
9260;SDS011;4667;42.726;23.252;2023-09-30T07:45:11;14.32;;;5.15;;
9260;SDS011;4667;42.726;23.252;2023-09-30T07:47:42;11.10;;;5.47;;
9260;SDS011;4667;42.726;23.252;2023-09-30T07:50:09;10.05;;;5.00;;
9260;SDS011;4667;42.726;23.252;2023-09-30T07:52:37;8.13;;;4.47;;
9260;SDS011;4667;42.726;23.252;2023-09-30T07:55:05;11.27;;;4.55;;
9260;SDS011;4667;42.726;23.252;2023-09-30T07:57:33;6.53;;;3.88;;
9260;SDS011;4667;42.726;23.252;2023-09-30T08:00:01;6.03;;;4.10;;
9260;SDS011;4667;42.726;23.252;2023-09-30T08:02:29;9.15;;;4.65;;
9260;SDS011;4667;42.726;23.252;2023-09-30T08:04:58;10.35;;;4.45;;
9260;SDS011;4667;42.726;23.252;2023-09-30T08:07:25;8.52;;;4.22;;
9260;SDS011;4667;42.726;23.252;2023-09-30T08:09:52;8.98;;;5.05;;
9260;SDS011;4667;42.726;23.252;2023-09-30T08:12:19;13.60;;;4.53;;
9260;SDS011;4667;42.726;23.252;2023-09-30T08:14:46;9.52;;;4.15;;
9260;SDS011;4667;42.726;23.252;2023-09-30T08:17:15;8.40;;;4.10;;
9260;SDS011;4667;42.726;23.252;2023-09-30T08:19:42;22.95;;;5.13;;
9260;SDS011;4667;42.726;23.252;2023-09-30T08:22:10;8.73;;;4.57;;
9260;SDS011;4667;42.726;23.252;2023-09-30T08:24:36;13.25;;;4.63;;
9260;SDS011;4667;42.726;23.252;2023-09-30T08:27:03;10.35;;;4.85;;
9260;SDS011;4667;42.726;23.252;2023-09-30T08:29:32;11.23;;;6.18;;
9260;SDS011;4667;42.726;23.252;2023-09-30T08:32:00;9.30;;;5.50;;
9260;SDS011;4667;42.726;23.252;2023-09-30T08:34:28;9.63;;;5.25;;
9260;SDS011;4667;42.726;23.252;2023-09-30T08:36:55;10.15;;;6.75;;
9260;SDS011;4667;42.726;23.252;2023-09-30T08:39:23;14.63;;;6.05;;
9260;SDS011;4667;42.726;23.252;2023-09-30T08:41:50;10.52;;;5.63;;
9260;SDS011;4667;42.726;23.252;2023-09-30T08:44:17;9.77;;;5.38;;
9260;SDS011;4667;42.726;23.252;2023-09-30T08:46:43;9.70;;;5.55;;
9260;SDS011;4667;42.726;23.252;2023-09-30T08:49:11;8.18;;;5.50;;
9260;SDS011;4667;42.726;23.252;2023-09-30T08:51:41;7.32;;;5.55;;
9260;SDS011;4667;42.726;23.252;2023-09-30T08:54:08;14.55;;;5.88;;
9260;SDS011;4667;42.726;23.252;2023-09-30T08:56:35;11.57;;;7.28;;
9260;SDS011;4667;42.726;23.252;2023-09-30T08:59:03;10.35;;;6.45;;
9260;SDS011;4667;42.726;23.252;2023-09-30T09:01:30;11.57;;;6.32;;
9260;SDS011;4667;42.726;23.252;2023-09-30T09:03:58;12.32;;;5.78;;
9260;SDS011;4667;42.726;23.252;2023-09-30T09:06:25;14.90;;;6.40;;
9260;SDS011;4667;42.726;23.252;2023-09-30T09:08:53;11.77;;;6.30;;
9260;SDS011;4667;42.726;23.252;2023-09-30T09:11:20;11.52;;;5.85;;
9260;SDS011;4667;42.726;23.252;2023-09-30T09:13:50;8.93;;;6.07;;
9260;SDS011;4667;42.726;23.252;2023-09-30T09:16:21;11.13;;;5.85;;
9260;SDS011;4667;42.726;23.252;2023-09-30T09:18:48;9.10;;;5.68;;
9260;SDS011;4667;42.726;23.252;2023-09-30T09:21:16;10.63;;;5.50;;
9260;SDS011;4667;42.726;23.252;2023-09-30T09:23:45;8.18;;;5.43;;
9260;SDS011;4667;42.726;23.252;2023-09-30T09:26:22;8.70;;;5.28;;
9260;SDS011;4667;42.726;23.252;2023-09-30T09:28:51;11.60;;;5.53;;
9260;SDS011;4667;42.726;23.252;2023-09-30T09:31:23;14.38;;;6.22;;
9260;SDS011;4667;42.726;23.252;2023-09-30T09:33:52;10.20;;;5.95;;
9260;SDS011;4667;42.726;23.252;2023-09-30T09:36:19;14.13;;;5.57;;
9260;SDS011;4667;42.726;23.252;2023-09-30T09:38:48;11.07;;;4.55;;
9260;SDS011;4667;42.726;23.252;2023-09-30T09:41:19;12.48;;;5.13;;
9260;SDS011;4667;42.726;23.252;2023-09-30T09:43:48;11.55;;;5.03;;
9260;SDS011;4667;42.726;23.252;2023-09-30T09:46:16;11.98;;;5.03;;
9260;SDS011;4667;42.726;23.252;2023-09-30T09:48:44;11.13;;;4.93;;
9260;SDS011;4667;42.726;23.252;2023-09-30T09:51:12;13.25;;;4.88;;
9260;SDS011;4667;42.726;23.252;2023-09-30T09:53:40;6.63;;;4.93;;
9260;SDS011;4667;42.726;23.252;2023-09-30T09:56:09;9.65;;;4.40;;
9260;SDS011;4667;42.726;23.252;2023-09-30T09:58:39;7.72;;;4.70;;
9260;SDS011;4667;42.726;23.252;2023-09-30T10:01:07;7.63;;;5.10;;
9260;SDS011;4667;42.726;23.252;2023-09-30T10:03:35;7.68;;;4.82;;
9260;SDS011;4667;42.726;23.252;2023-09-30T10:06:03;5.97;;;4.28;;
9260;SDS011;4667;42.726;23.252;2023-09-30T10:08:31;9.13;;;4.22;;
9260;SDS011;4667;42.726;23.252;2023-09-30T10:11:01;10.50;;;5.30;;
9260;SDS011;4667;42.726;23.252;2023-09-30T10:19:17;9.98;;;4.43;;
9260;SDS011;4667;42.726;23.252;2023-09-30T10:24:51;6.20;;;3.78;;
9260;SDS011;4667;42.726;23.252;2023-09-30T10:30:11;8.88;;;3.95;;
9260;SDS011;4667;42.726;23.252;2023-09-30T10:35:43;15.10;;;4.40;;
9260;SDS011;4667;42.726;23.252;2023-09-30T10:41:08;7.35;;;3.40;;
9260;SDS011;4667;42.726;23.252;2023-09-30T10:43:37;8.20;;;4.28;;
9260;SDS011;4667;42.726;23.252;2023-09-30T10:51:59;7.75;;;3.60;;
9260;SDS011;4667;42.726;23.252;2023-09-30T10:54:26;7.40;;;3.90;;
9260;SDS011;4667;42.726;23.252;2023-09-30T10:56:54;4.95;;;3.47;;
9260;SDS011;4667;42.726;23.252;2023-09-30T10:59:24;8.82;;;3.67;;
9260;SDS011;4667;42.726;23.252;2023-09-30T11:01:53;5.00;;;3.38;;
9260;SDS011;4667;42.726;23.252;2023-09-30T11:04:20;5.93;;;3.13;;
9260;SDS011;4667;42.726;23.252;2023-09-30T11:06:47;6.85;;;3.20;;
9260;SDS011;4667;42.726;23.252;2023-09-30T11:09:16;10.45;;;3.75;;
9260;SDS011;4667;42.726;23.252;2023-09-30T11:11:44;6.45;;;3.67;;
9260;SDS011;4667;42.726;23.252;2023-09-30T11:14:18;6.97;;;3.67;;
9260;SDS011;4667;42.726;23.252;2023-09-30T11:16:46;9.50;;;3.60;;
9260;SDS011;4667;42.726;23.252;2023-09-30T11:19:14;7.05;;;3.40;;
9260;SDS011;4667;42.726;23.252;2023-09-30T11:21:42;5.53;;;3.65;;
9260;SDS011;4667;42.726;23.252;2023-09-30T11:24:11;9.90;;;4.07;;
9260;SDS011;4667;42.726;23.252;2023-09-30T11:26:39;4.78;;;3.63;;
9260;SDS011;4667;42.726;23.252;2023-09-30T11:29:07;6.75;;;3.85;;
9260;SDS011;4667;42.726;23.252;2023-09-30T11:31:37;9.35;;;3.28;;
9260;SDS011;4667;42.726;23.252;2023-09-30T11:34:04;5.30;;;3.72;;
9260;SDS011;4667;42.726;23.252;2023-09-30T11:36:35;6.03;;;3.85;;
9260;SDS011;4667;42.726;23.252;2023-09-30T11:39:03;4.97;;;3.25;;
9260;SDS011;4667;42.726;23.252;2023-09-30T11:41:34;6.78;;;4.40;;
9260;SDS011;4667;42.726;23.252;2023-09-30T11:44:04;4.43;;;3.95;;
9260;SDS011;4667;42.726;23.252;2023-09-30T11:46:52;8.05;;;3.80;;
9260;SDS011;4667;42.726;23.252;2023-09-30T11:49:26;6.65;;;3.80;;
9260;SDS011;4667;42.726;23.252;2023-09-30T11:51:56;7.72;;;4.50;;
9260;SDS011;4667;42.726;23.252;2023-09-30T11:54:28;9.48;;;4.43;;
9260;SDS011;4667;42.726;23.252;2023-09-30T11:56:56;8.15;;;4.47;;
9260;SDS011;4667;42.726;23.252;2023-09-30T11:59:23;8.50;;;4.40;;
9260;SDS011;4667;42.726;23.252;2023-09-30T12:01:50;5.07;;;4.18;;
9260;SDS011;4667;42.726;23.252;2023-09-30T12:04:18;11.88;;;4.38;;
9260;SDS011;4667;42.726;23.252;2023-09-30T12:06:45;9.75;;;4.50;;
9260;SDS011;4667;42.726;23.252;2023-09-30T12:09:14;6.55;;;3.60;;
9260;SDS011;4667;42.726;23.252;2023-09-30T12:11:42;5.40;;;3.83;;
9260;SDS011;4667;42.726;23.252;2023-09-30T12:14:10;6.53;;;3.75;;
9260;SDS011;4667;42.726;23.252;2023-09-30T12:16:38;10.18;;;4.10;;
9260;SDS011;4667;42.726;23.252;2023-09-30T12:19:06;7.95;;;4.28;;
9260;SDS011;4667;42.726;23.252;2023-09-30T12:21:33;6.82;;;4.05;;
9260;SDS011;4667;42.726;23.252;2023-09-30T12:24:01;6.45;;;4.28;;
9260;SDS011;4667;42.726;23.252;2023-09-30T12:26:30;10.38;;;4.35;;
9260;SDS011;4667;42.726;23.252;2023-09-30T12:28:57;6.03;;;4.68;;
9260;SDS011;4667;42.726;23.252;2023-09-30T12:31:24;6.70;;;4.53;;
9260;SDS011;4667;42.726;23.252;2023-09-30T12:33:51;5.32;;;3.88;;
9260;SDS011;4667;42.726;23.252;2023-09-30T12:36:19;9.98;;;3.90;;
9260;SDS011;4667;42.726;23.252;2023-09-30T12:38:46;7.45;;;3.53;;
9260;SDS011;4667;42.726;23.252;2023-09-30T12:41:13;8.68;;;4.85;;
9260;SDS011;4667;42.726;23.252;2023-09-30T12:43:41;7.45;;;3.97;;
9260;SDS011;4667;42.726;23.252;2023-09-30T12:46:08;9.05;;;4.22;;
9260;SDS011;4667;42.726;23.252;2023-09-30T12:48:38;9.20;;;4.38;;
9260;SDS011;4667;42.726;23.252;2023-09-30T12:51:05;9.73;;;4.03;;
9260;SDS011;4667;42.726;23.252;2023-09-30T12:53:34;12.15;;;4.20;;
9260;SDS011;4667;42.726;23.252;2023-09-30T12:56:00;8.85;;;4.07;;
9260;SDS011;4667;42.726;23.252;2023-09-30T12:58:27;4.25;;;3.60;;
9260;SDS011;4667;42.726;23.252;2023-09-30T13:00:56;10.48;;;4.50;;
9260;SDS011;4667;42.726;23.252;2023-09-30T13:03:23;11.00;;;4.35;;
9260;SDS011;4667;42.726;23.252;2023-09-30T13:05:49;7.70;;;4.13;;
9260;SDS011;4667;42.726;23.252;2023-09-30T13:08:16;5.63;;;4.18;;
9260;SDS011;4667;42.726;23.252;2023-09-30T13:10:43;8.32;;;3.78;;
9260;SDS011;4667;42.726;23.252;2023-09-30T13:13:10;10.77;;;4.38;;
9260;SDS011;4667;42.726;23.252;2023-09-30T13:15:37;9.90;;;4.32;;
9260;SDS011;4667;42.726;23.252;2023-09-30T13:18:05;7.90;;;4.35;;
9260;SDS011;4667;42.726;23.252;2023-09-30T13:20:32;5.57;;;4.68;;
9260;SDS011;4667;42.726;23.252;2023-09-30T13:22:59;13.10;;;8.75;;
9260;SDS011;4667;42.726;23.252;2023-09-30T13:25:28;10.05;;;5.00;;
9260;SDS011;4667;42.726;23.252;2023-09-30T13:27:55;6.78;;;5.20;;
9260;SDS011;4667;42.726;23.252;2023-09-30T13:30:21;7.45;;;4.07;;
9260;SDS011;4667;42.726;23.252;2023-09-30T13:32:48;12.80;;;4.30;;
9260;SDS011;4667;42.726;23.252;2023-09-30T13:35:16;8.55;;;4.85;;
9260;SDS011;4667;42.726;23.252;2023-09-30T13:37:44;9.02;;;5.43;;
9260;SDS011;4667;42.726;23.252;2023-09-30T13:40:11;6.53;;;4.68;;
9260;SDS011;4667;42.726;23.252;2023-09-30T13:42:38;11.13;;;4.60;;
9260;SDS011;4667;42.726;23.252;2023-09-30T13:45:05;8.60;;;4.80;;
9260;SDS011;4667;42.726;23.252;2023-09-30T13:47:33;8.10;;;5.13;;
9260;SDS011;4667;42.726;23.252;2023-09-30T13:50:00;7.97;;;5.13;;
9260;SDS011;4667;42.726;23.252;2023-09-30T13:52:30;6.28;;;4.63;;
9260;SDS011;4667;42.726;23.252;2023-09-30T13:54:57;5.57;;;4.35;;
9260;SDS011;4667;42.726;23.252;2023-09-30T13:57:23;7.53;;;4.55;;
9260;SDS011;4667;42.726;23.252;2023-09-30T13:59:50;12.52;;;5.20;;
9260;SDS011;4667;42.726;23.252;2023-09-30T14:02:17;12.25;;;4.78;;
9260;SDS011;4667;42.726;23.252;2023-09-30T14:04:44;7.25;;;4.40;;
9260;SDS011;4667;42.726;23.252;2023-09-30T14:07:11;8.80;;;5.22;;
9260;SDS011;4667;42.726;23.252;2023-09-30T14:09:40;9.55;;;4.50;;
9260;SDS011;4667;42.726;23.252;2023-09-30T14:12:06;5.63;;;4.45;;
9260;SDS011;4667;42.726;23.252;2023-09-30T14:14:33;12.20;;;5.00;;
9260;SDS011;4667;42.726;23.252;2023-09-30T14:17:00;10.18;;;4.72;;
9260;SDS011;4667;42.726;23.252;2023-09-30T14:19:32;7.82;;;4.68;;
9260;SDS011;4667;42.726;23.252;2023-09-30T14:21:59;6.32;;;4.22;;
9260;SDS011;4667;42.726;23.252;2023-09-30T14:24:26;7.45;;;4.40;;
9260;SDS011;4667;42.726;23.252;2023-09-30T14:26:54;5.95;;;4.28;;
9260;SDS011;4667;42.726;23.252;2023-09-30T14:29:21;5.07;;;4.40;;
9260;SDS011;4667;42.726;23.252;2023-09-30T14:31:49;7.50;;;4.90;;
9260;SDS011;4667;42.726;23.252;2023-09-30T14:34:16;8.18;;;4.30;;
9260;SDS011;4667;42.726;23.252;2023-09-30T14:36:43;9.85;;;5.03;;
9260;SDS011;4667;42.726;23.252;2023-09-30T14:39:10;10.23;;;4.00;;
9260;SDS011;4667;42.726;23.252;2023-09-30T14:41:37;12.88;;;4.43;;
9260;SDS011;4667;42.726;23.252;2023-09-30T14:44:05;8.18;;;4.85;;
9260;SDS011;4667;42.726;23.252;2023-09-30T14:46:33;5.88;;;4.28;;
9260;SDS011;4667;42.726;23.252;2023-09-30T14:49:00;10.82;;;4.70;;
9260;SDS011;4667;42.726;23.252;2023-09-30T14:51:27;6.80;;;4.70;;
9260;SDS011;4667;42.726;23.252;2023-09-30T14:53:53;8.00;;;5.05;;
9260;SDS011;4667;42.726;23.252;2023-09-30T14:56:20;14.30;;;6.25;;
9260;SDS011;4667;42.726;23.252;2023-09-30T14:58:47;10.35;;;6.18;;
9260;SDS011;4667;42.726;23.252;2023-09-30T15:01:15;7.78;;;5.15;;
9260;SDS011;4667;42.726;23.252;2023-09-30T15:03:42;13.23;;;5.88;;
9260;SDS011;4667;42.726;23.252;2023-09-30T15:06:09;11.70;;;6.50;;
9260;SDS011;4667;42.726;23.252;2023-09-30T15:08:36;20.65;;;11.35;;
9260;SDS011;4667;42.726;23.252;2023-09-30T15:11:03;8.18;;;4.63;;
9260;SDS011;4667;42.726;23.252;2023-09-30T15:13:29;8.52;;;5.00;;
9260;SDS011;4667;42.726;23.252;2023-09-30T15:15:56;9.32;;;5.07;;